Terminal Aerodrome Forecast
Issued by NWS Cleveland, OH

Home | Current Version | Previous Version | Text Only | Print | Product List | Glossary Off
Versions: 1 2 3 4 5 6 7 8 9 10 11 12 13 14 15 16 17 18 19 20 21 22 23 24 25

000
FTUS41 KCLE 181121
TAFERI
TAF
KERI 181121Z 1812/1912 28008KT P6SM OVC025
     FM181600 29008KT P6SM BKN060
     FM182200 01007KT P6SM BKN080
     FM190100 07008KT P6SM -RASN OVC050
     FM190500 04010KT P6SM -RASN OVC007
     FM190800 03010G18KT 4SM -SN OVC007=

USA.gov is the U.S. government's official web portal to all federal, state and local government web resources and services.